sensor_id;sensor_type;location;lat;lon;timestamp;temperature;humidity
54946;DHT22;40846;44.788;20.486;2024-03-25T00:01:34;128.20;2252.80
54946;DHT22;40846;44.788;20.486;2024-03-25T00:04:00;128.20;2252.80
54946;DHT22;40846;44.788;20.486;2024-03-25T00:06:26;128.20;2252.80
54946;DHT22;40846;44.788;20.486;2024-03-25T00:08:52;128.10;2252.80
54946;DHT22;40846;44.788;20.486;2024-03-25T00:11:18;128.10;2252.80
54946;DHT22;40846;44.788;20.486;2024-03-25T00:13:44;128.10;2252.80
54946;DHT22;40846;44.788;20.486;2024-03-25T00:16:09;128.10;2252.80
54946;DHT22;40846;44.788;20.486;2024-03-25T00:25:55;128.30;2252.80
54946;DHT22;40846;44.788;20.486;2024-03-25T00:28:21;128.10;2252.80
54946;DHT22;40846;44.788;20.486;2024-03-25T00:30:46;128.10;2252.80
54946;DHT22;40846;44.788;20.486;2024-03-25T00:33:12;128.20;2252.80
54946;DHT22;40846;44.788;20.486;2024-03-25T00:35:38;128.10;2252.80
54946;DHT22;40846;44.788;20.486;2024-03-25T00:38:04;128.10;2252.80
54946;DHT22;40846;44.788;20.486;2024-03-25T00:40:31;128.40;2252.80
54946;DHT22;40846;44.788;20.486;2024-03-25T00:42:56;128.10;2252.80
54946;DHT22;40846;44.788;20.486;2024-03-25T00:45:22;128.10;2252.80
54946;DHT22;40846;44.788;20.486;2024-03-25T00:47:50;128.20;2252.80
54946;DHT22;40846;44.788;20.486;2024-03-25T00:50:16;128.30;2252.80
54946;DHT22;40846;44.788;20.486;2024-03-25T00:52:42;128.00;2252.80
54946;DHT22;40846;44.788;20.486;2024-03-25T00:55:08;128.00;2252.80
54946;DHT22;40846;44.788;20.486;2024-03-25T00:57:34;103.30;2227.20
54946;DHT22;40846;44.788;20.486;2024-03-25T01:00:00;128.00;2252.80
54946;DHT22;40846;44.788;20.486;2024-03-25T01:02:26;103.30;2227.20
54946;DHT22;40846;44.788;20.486;2024-03-25T01:04:53;103.30;2227.20
54946;DHT22;40846;44.788;20.486;2024-03-25T01:07:20;103.30;2227.20
54946;DHT22;40846;44.788;20.486;2024-03-25T01:09:46;103.20;2227.20
54946;DHT22;40846;44.788;20.486;2024-03-25T01:12:11;103.10;2227.20
54946;DHT22;40846;44.788;20.486;2024-03-25T01:14:37;103.30;2227.20
54946;DHT22;40846;44.788;20.486;2024-03-25T01:17:03;103.20;2227.20
54946;DHT22;40846;44.788;20.486;2024-03-25T01:19:29;103.20;2227.20
54946;DHT22;40846;44.788;20.486;2024-03-25T01:21:55;103.30;2227.20
54946;DHT22;40846;44.788;20.486;2024-03-25T01:24:21;103.20;2227.20
54946;DHT22;40846;44.788;20.486;2024-03-25T01:26:47;103.20;2227.20
54946;DHT22;40846;44.788;20.486;2024-03-25T01:29:13;103.20;2227.20
54946;DHT22;40846;44.788;20.486;2024-03-25T01:31:39;103.20;2227.20
54946;DHT22;40846;44.788;20.486;2024-03-25T01:34:05;103.30;2227.20
54946;DHT22;40846;44.788;20.486;2024-03-25T01:36:31;103.30;2227.20
54946;DHT22;40846;44.788;20.486;2024-03-25T01:38:57;103.30;2227.20
54946;DHT22;40846;44.788;20.486;2024-03-25T01:41:23;128.00;2252.80
54946;DHT22;40846;44.788;20.486;2024-03-25T01:43:49;128.00;2252.80
54946;DHT22;40846;44.788;20.486;2024-03-25T01:46:17;128.10;2252.80
54946;DHT22;40846;44.788;20.486;2024-03-25T01:48:44;128.10;2252.80
54946;DHT22;40846;44.788;20.486;2024-03-25T01:51:11;128.10;2252.80
54946;DHT22;40846;44.788;20.486;2024-03-25T01:53:39;128.10;2252.80
54946;DHT22;40846;44.788;20.486;2024-03-25T01:56:05;128.40;2252.80
54946;DHT22;40846;44.788;20.486;2024-03-25T01:58:31;128.20;2252.80
54946;DHT22;40846;44.788;20.486;2024-03-25T02:00:58;128.20;2252.80
54946;DHT22;40846;44.788;20.486;2024-03-25T02:03:28;128.20;2252.80
54946;DHT22;40846;44.788;20.486;2024-03-25T02:06:02;128.20;2252.80
54946;DHT22;40846;44.788;20.486;2024-03-25T02:08:29;128.10;2252.80
54946;DHT22;40846;44.788;20.486;2024-03-25T02:10:57;128.20;2252.80
54946;DHT22;40846;44.788;20.486;2024-03-25T02:13:24;128.10;2252.80
54946;DHT22;40846;44.788;20.486;2024-03-25T02:15:50;128.10;2252.80
54946;DHT22;40846;44.788;20.486;2024-03-25T02:18:17;128.10;2252.80
54946;DHT22;40846;44.788;20.486;2024-03-25T02:20:44;128.10;2252.80
54946;DHT22;40846;44.788;20.486;2024-03-25T02:23:13;128.10;2252.80
54946;DHT22;40846;44.788;20.486;2024-03-25T02:25:42;128.00;2252.80
54946;DHT22;40846;44.788;20.486;2024-03-25T02:28:09;128.10;2252.80
54946;DHT22;40846;44.788;20.486;2024-03-25T02:30:34;128.10;2252.80
54946;DHT22;40846;44.788;20.486;2024-03-25T02:33:03;128.10;2252.80
54946;DHT22;40846;44.788;20.486;2024-03-25T02:35:28;128.10;2252.80
54946;DHT22;40846;44.788;20.486;2024-03-25T02:37:55;128.10;2252.80
54946;DHT22;40846;44.788;20.486;2024-03-25T02:40:21;128.30;2252.80
54946;DHT22;40846;44.788;20.486;2024-03-25T02:42:48;128.20;2252.80
54946;DHT22;40846;44.788;20.486;2024-03-25T02:45:15;128.50;2252.80
54946;DHT22;40846;44.788;20.486;2024-03-25T02:47:41;128.40;2252.80
54946;DHT22;40846;44.788;20.486;2024-03-25T02:50:07;128.60;2252.80
54946;DHT22;40846;44.788;20.486;2024-03-25T02:52:33;128.30;2252.80
54946;DHT22;40846;44.788;20.486;2024-03-25T02:54:59;128.30;2252.80
54946;DHT22;40846;44.788;20.486;2024-03-25T02:57:25;128.30;2252.80
54946;DHT22;40846;44.788;20.486;2024-03-25T02:59:51;128.30;2252.80
54946;DHT22;40846;44.788;20.486;2024-03-25T03:02:16;128.40;2252.80
54946;DHT22;40846;44.788;20.486;2024-03-25T03:04:42;128.40;2252.80
54946;DHT22;40846;44.788;20.486;2024-03-25T03:07:08;128.60;2252.80
54946;DHT22;40846;44.788;20.486;2024-03-25T03:19:26;128.60;2252.80
54946;DHT22;40846;44.788;20.486;2024-03-25T03:21:53;128.60;2252.80
54946;DHT22;40846;44.788;20.486;2024-03-25T03:24:19;128.50;2252.80
54946;DHT22;40846;44.788;20.486;2024-03-25T03:29:11;128.40;2252.80
54946;DHT22;40846;44.788;20.486;2024-03-25T03:31:37;128.30;2252.80
54946;DHT22;40846;44.788;20.486;2024-03-25T03:34:03;128.10;2252.80
54946;DHT22;40846;44.788;20.486;2024-03-25T03:36:29;128.20;2252.80
54946;DHT22;40846;44.788;20.486;2024-03-25T03:38:55;128.20;2252.80
54946;DHT22;40846;44.788;20.486;2024-03-25T03:41:20;128.30;2252.80
54946;DHT22;40846;44.788;20.486;2024-03-25T03:43:46;128.30;2252.80
54946;DHT22;40846;44.788;20.486;2024-03-25T03:46:12;128.50;2252.80
54946;DHT22;40846;44.788;20.486;2024-03-25T03:48:39;128.50;2252.80
54946;DHT22;40846;44.788;20.486;2024-03-25T03:51:05;128.50;2252.80
54946;DHT22;40846;44.788;20.486;2024-03-25T03:53:32;128.50;2252.80
54946;DHT22;40846;44.788;20.486;2024-03-25T03:56:03;128.40;2252.80
54946;DHT22;40846;44.788;20.486;2024-03-25T03:58:32;128.50;2252.80
54946;DHT22;40846;44.788;20.486;2024-03-25T04:00:58;128.50;2252.80
54946;DHT22;40846;44.788;20.486;2024-03-25T04:03:24;128.40;2252.80
54946;DHT22;40846;44.788;20.486;2024-03-25T04:05:50;128.30;2252.80
54946;DHT22;40846;44.788;20.486;2024-03-25T04:08:17;128.20;2252.80
54946;DHT22;40846;44.788;20.486;2024-03-25T04:10:44;128.30;2252.80
54946;DHT22;40846;44.788;20.486;2024-03-25T04:13:10;128.30;2252.80
54946;DHT22;40846;44.788;20.486;2024-03-25T04:15:37;128.10;2252.80
54946;DHT22;40846;44.788;20.486;2024-03-25T04:18:03;128.40;2252.80
54946;DHT22;40846;44.788;20.486;2024-03-25T04:20:30;128.40;2252.80
54946;DHT22;40846;44.788;20.486;2024-03-25T04:23:01;128.50;2252.80
54946;DHT22;40846;44.788;20.486;2024-03-25T04:25:27;128.50;2252.80
54946;DHT22;40846;44.788;20.486;2024-03-25T04:37:38;128.60;2252.80
54946;DHT22;40846;44.788;20.486;2024-03-25T04:40:04;128.40;2252.80
54946;DHT22;40846;44.788;20.486;2024-03-25T04:42:29;128.40;2252.80
54946;DHT22;40846;44.788;20.486;2024-03-25T04:44:55;128.40;2252.80
54946;DHT22;40846;44.788;20.486;2024-03-25T04:47:22;128.40;2252.80
54946;DHT22;40846;44.788;20.486;2024-03-25T04:49:48;128.50;2252.80
54946;DHT22;40846;44.788;20.486;2024-03-25T04:52:15;128.40;2252.80
54946;DHT22;40846;44.788;20.486;2024-03-25T04:54:48;128.50;2252.80
54946;DHT22;40846;44.788;20.486;2024-03-25T04:57:14;128.40;2252.80
54946;DHT22;40846;44.788;20.486;2024-03-25T04:59:40;128.60;2252.80
54946;DHT22;40846;44.788;20.486;2024-03-25T05:02:06;128.50;2252.80
54946;DHT22;40846;44.788;20.486;2024-03-25T05:04:32;128.50;2252.80
54946;DHT22;40846;44.788;20.486;2024-03-25T05:06:58;128.60;2252.80
54946;DHT22;40846;44.788;20.486;2024-03-25T05:09:24;128.50;2252.80
54946;DHT22;40846;44.788;20.486;2024-03-25T05:11:50;128.60;2252.80
54946;DHT22;40846;44.788;20.486;2024-03-25T05:14:16;128.70;2252.80
54946;DHT22;40846;44.788;20.486;2024-03-25T05:16:41;128.70;2252.80
54946;DHT22;40846;44.788;20.486;2024-03-25T05:19:07;128.80;2252.80
54946;DHT22;40846;44.788;20.486;2024-03-25T05:21:33;128.80;2252.80
54946;DHT22;40846;44.788;20.486;2024-03-25T05:23:59;128.70;2252.80
54946;DHT22;40846;44.788;20.486;2024-03-25T05:26:25;128.70;2252.80
54946;DHT22;40846;44.788;20.486;2024-03-25T05:28:55;128.80;2252.80
54946;DHT22;40846;44.788;20.486;2024-03-25T05:31:21;128.90;2252.80
54946;DHT22;40846;44.788;20.486;2024-03-25T05:33:47;128.70;2252.80
54946;DHT22;40846;44.788;20.486;2024-03-25T05:36:13;128.70;2252.80
54946;DHT22;40846;44.788;20.486;2024-03-25T05:38:40;128.90;2252.80
54946;DHT22;40846;44.788;20.486;2024-03-25T05:41:07;153.60;2252.80
54946;DHT22;40846;44.788;20.486;2024-03-25T05:43:33;153.60;2252.80
54946;DHT22;40846;44.788;20.486;2024-03-25T05:45:59;153.60;2252.80
54946;DHT22;40846;44.788;20.486;2024-03-25T05:48:25;153.70;2252.80
54946;DHT22;40846;44.788;20.486;2024-03-25T05:51:05;153.70;2252.80
54946;DHT22;40846;44.788;20.486;2024-03-25T05:53:31;128.90;2099.20
54946;DHT22;40846;44.788;20.486;2024-03-25T05:55:57;153.60;2022.40
54946;DHT22;40846;44.788;20.486;2024-03-25T05:58:26;153.70;2252.80
54946;DHT22;40846;44.788;20.486;2024-03-25T06:00:52;153.70;2252.80
54946;DHT22;40846;44.788;20.486;2024-03-25T06:03:18;153.70;2252.80
54946;DHT22;40846;44.788;20.486;2024-03-25T06:05:45;153.70;2252.80
54946;DHT22;40846;44.788;20.486;2024-03-25T06:08:11;153.70;2252.80
54946;DHT22;40846;44.788;20.486;2024-03-25T06:11:00;153.70;1971.20
54946;DHT22;40846;44.788;20.486;2024-03-25T06:13:27;153.70;2252.80
54946;DHT22;40846;44.788;20.486;2024-03-25T06:15:53;153.60;1894.40
54946;DHT22;40846;44.788;20.486;2024-03-25T06:20:47;154.00;2252.80
54946;DHT22;40846;44.788;20.486;2024-03-25T06:23:29;154.00;2252.80
54946;DHT22;40846;44.788;20.486;2024-03-25T06:25:55;154.20;2252.80
54946;DHT22;40846;44.788;20.486;2024-03-25T06:28:21;154.20;2252.80
54946;DHT22;40846;44.788;20.486;2024-03-25T06:30:48;154.20;2252.80
54946;DHT22;40846;44.788;20.486;2024-03-25T06:33:32;154.10;2252.80
54946;DHT22;40846;44.788;20.486;2024-03-25T06:36:17;154.40;2252.80
54946;DHT22;40846;44.788;20.486;2024-03-25T06:50:58;204.80;2252.80
54946;DHT22;40846;44.788;20.486;2024-03-25T06:53:24;205.30;2252.80
54946;DHT22;40846;44.788;20.486;2024-03-25T06:55:57;230.60;2252.80
54946;DHT22;40846;44.788;20.486;2024-03-25T06:58:25;231.10;2252.80
54946;DHT22;40846;44.788;20.486;2024-03-25T07:08:15;230.70;2252.80
54946;DHT22;40846;44.788;20.486;2024-03-25T07:10:44;230.50;2252.80
54946;DHT22;40846;44.788;20.486;2024-03-25T07:13:14;231.10;2252.80
54946;DHT22;40846;44.788;20.486;2024-03-25T07:15:40;230.90;2252.80
54946;DHT22;40846;44.788;20.486;2024-03-25T07:18:06;230.90;2252.80
54946;DHT22;40846;44.788;20.486;2024-03-25T07:20:32;230.90;2252.80
54946;DHT22;40846;44.788;20.486;2024-03-25T07:42:39;256.10;2252.80
54946;DHT22;40846;44.788;20.486;2024-03-25T07:47:32;230.90;2252.80
54946;DHT22;40846;44.788;20.486;2024-03-25T07:49:58;230.80;2252.80
54946;DHT22;40846;44.788;20.486;2024-03-25T07:52:27;231.00;2252.80
54946;DHT22;40846;44.788;20.486;2024-03-25T07:54:54;231.00;2252.80
54946;DHT22;40846;44.788;20.486;2024-03-25T07:57:20;230.90;2252.80
54946;DHT22;40846;44.788;20.486;2024-03-25T07:59:46;231.00;2252.80
54946;DHT22;40846;44.788;20.486;2024-03-25T08:02:12;256.00;2252.80
54946;DHT22;40846;44.788;20.486;2024-03-25T08:04:38;256.20;2252.80
54946;DHT22;40846;44.788;20.486;2024-03-25T08:07:03;256.40;2252.80
54946;DHT22;40846;44.788;20.486;2024-03-25T08:26:40;563.50;1536.00
54946;DHT22;40846;44.788;20.486;2024-03-25T08:29:06;615.10;1331.20
54946;DHT22;40846;44.788;20.486;2024-03-25T08:33:59;793.70;1075.20
54946;DHT22;40846;44.788;20.486;2024-03-25T08:36:25;794.00;1024.00
54946;DHT22;40846;44.788;20.486;2024-03-25T08:38:50;819.80;947.20
54946;DHT22;40846;44.788;20.486;2024-03-25T08:43:44;819.50;947.20
54946;DHT22;40846;44.788;20.486;2024-03-25T08:46:10;819.80;921.60
54946;DHT22;40846;44.788;20.486;2024-03-25T08:48:36;819.50;921.60
54946;DHT22;40846;44.788;20.486;2024-03-25T08:51:01;820.00;921.60
54946;DHT22;40846;44.788;20.486;2024-03-25T09:08:06;870.40;844.80
54946;DHT22;40846;44.788;20.486;2024-03-25T09:13:17;819.50;896.00
54946;DHT22;40846;44.788;20.486;2024-03-25T09:15:43;768.50;896.00
54946;DHT22;40846;44.788;20.486;2024-03-25T09:43:13;512.90;1177.60
54946;DHT22;40846;44.788;20.486;2024-03-25T09:55:31;486.70;1254.40
54946;DHT22;40846;44.788;20.486;2024-03-25T11:39:15;333.40;1945.60
54946;DHT22;40846;44.788;20.486;2024-03-25T11:41:42;333.30;1920.00
54946;DHT22;40846;44.788;20.486;2024-03-25T11:58:59;333.30;1638.40
54946;DHT22;40846;44.788;20.486;2024-03-25T12:01:26;333.20;1664.00
54946;DHT22;40846;44.788;20.486;2024-03-25T12:03:52;333.00;1689.60
54946;DHT22;40846;44.788;20.486;2024-03-25T12:06:18;332.90;1740.80
54946;DHT22;40846;44.788;20.486;2024-03-25T12:13:56;282.40;2278.40
54946;DHT22;40846;44.788;20.486;2024-03-25T12:18:49;282.00;2278.40
54946;DHT22;40846;44.788;20.486;2024-03-25T12:21:15;281.90;2278.40
54946;DHT22;40846;44.788;20.486;2024-03-25T12:23:42;281.90;2278.40
54946;DHT22;40846;44.788;20.486;2024-03-25T12:26:08;281.90;2278.40
54946;DHT22;40846;44.788;20.486;2024-03-25T12:31:07;256.90;2252.80
54946;DHT22;40846;44.788;20.486;2024-03-25T12:33:43;256.90;2252.80
54946;DHT22;40846;44.788;20.486;2024-03-25T12:38:37;256.50;2252.80
54946;DHT22;40846;44.788;20.486;2024-03-25T12:41:12;256.30;2252.80
